Terminal Aerodrome Forecast
Issued by NWS

Home | Current Version | Previous Version | Text Only | Print | Product List | Glossary Off
Versions: 1 2 3 4 5 6 7 8 9 10 11 12 13 14 15 16 17 18 19 20 21 22

000
FTUS43 KBIS 280500
TAFMOT
TAF
KMOT 280535Z 2806/2906 36018G24KT P6SM SCT030 BKN050 OVC070
     FM280900 36016G22KT P6SM -SHRA SCT020 BKN030 OVC050
     FM281300 01015KT P6SM -SHRA BKN015 OVC025
     FM290300 03010KT 5SM BR VCSH BKN010 OVC020=

USA.gov is the U.S. government's official web portal to all federal, state and local government web resources and services.